createdAt,value
2023-04-09T00:00:03.670Z,986.56
2023-04-09T00:01:03.844Z,986.45
2023-04-09T00:02:03.993Z,986.53
2023-04-09T00:03:04.027Z,986.48
2023-04-09T00:04:04.109Z,986.42
2023-04-09T00:05:03.109Z,986.51
2023-04-09T00:06:03.143Z,986.58
2023-04-09T00:07:03.065Z,986.48
2023-04-09T00:08:03.211Z,986.48
2023-04-09T00:09:03.676Z,986.51
2023-04-09T00:10:03.989Z,986.45
2023-04-09T00:11:02.964Z,986.53
2023-04-09T00:12:03.191Z,986.45
2023-04-09T00:13:03.091Z,986.54
2023-04-09T00:14:03.190Z,986.51
2023-04-09T00:15:03.219Z,986.51
2023-04-09T00:16:03.182Z,986.42
2023-04-09T00:17:03.201Z,986.51
2023-04-09T00:18:03.440Z,986.42
2023-04-09T00:19:03.375Z,986.45
2023-04-09T00:20:03.399Z,986.51
2023-04-09T00:21:03.365Z,986.45
2023-04-09T00:22:03.490Z,986.45
2023-04-09T00:23:03.476Z,986.42
2023-04-09T00:24:03.903Z,986.48
2023-04-09T00:25:04.055Z,986.45
2023-04-09T00:26:03.094Z,986.51
2023-04-09T00:27:03.027Z,986.51
2023-04-09T00:28:03.107Z,986.61
2023-04-09T00:29:03.169Z,986.43
2023-04-09T00:30:03.218Z,986.54
2023-04-09T00:31:03.244Z,986.45
2023-04-09T00:32:03.438Z,986.45
2023-04-09T00:33:03.441Z,986.51
2023-04-09T00:34:03.205Z,986.45
2023-04-09T00:35:03.332Z,986.45
2023-04-09T00:36:03.505Z,986.51
2023-04-09T00:37:03.384Z,986.56
2023-04-09T00:38:03.540Z,986.51
2023-04-09T00:39:03.536Z,986.45
2023-04-09T00:40:03.624Z,986.54
2023-04-09T00:41:03.596Z,986.51
2023-04-09T00:42:03.577Z,986.45
2023-04-09T00:43:03.697Z,986.54
2023-04-09T00:44:03.705Z,986.48
2023-04-09T00:45:03.722Z,986.43
2023-04-09T00:46:03.771Z,986.48
2023-04-09T00:47:03.851Z,986.54
2023-04-09T00:48:03.791Z,986.48
2023-04-09T00:49:03.876Z,986.54
2023-04-09T00:50:03.896Z,986.54
2023-04-09T00:51:02.956Z,986.54
2023-04-09T00:52:03.042Z,986.51
2023-04-09T00:53:03.112Z,986.54
2023-04-09T00:54:03.089Z,986.51
2023-04-09T00:55:03.028Z,986.48
2023-04-09T00:56:03.070Z,986.62
2023-04-09T00:57:03.140Z,986.54
2023-04-09T00:58:03.100Z,986.56
2023-04-09T00:59:03.148Z,986.64
2023-04-09T01:00:03.288Z,986.54
2023-04-09T01:01:03.461Z,986.59
2023-04-09T01:02:03.466Z,986.56
2023-04-09T01:03:03.589Z,986.59
2023-04-09T01:04:03.528Z,986.56
2023-04-09T01:05:03.489Z,986.51
2023-04-09T01:06:03.431Z,986.54
2023-04-09T01:07:03.589Z,986.56
2023-04-09T01:08:03.696Z,986.54
2023-04-09T01:09:03.641Z,986.59
2023-04-09T01:10:03.811Z,986.52
2023-04-09T01:11:03.687Z,986.56
2023-04-09T01:12:03.663Z,986.52
2023-04-09T01:13:03.493Z,986.46
2023-04-09T01:14:03.496Z,986.52
2023-04-09T01:15:03.606Z,986.46
2023-04-09T01:16:03.596Z,986.38
2023-04-09T01:17:03.630Z,986.52
2023-04-09T01:18:03.733Z,986.54
2023-04-09T01:19:03.731Z,986.56
2023-04-09T01:20:03.974Z,986.49
2023-04-09T01:21:03.420Z,986.46
2023-04-09T01:22:02.913Z,986.52
2023-04-09T01:23:03.053Z,986.56
2023-04-09T01:24:03.040Z,986.43
2023-04-09T01:25:03.102Z,986.55
2023-04-09T01:26:03.085Z,986.43
2023-04-09T01:27:03.177Z,986.46
2023-04-09T01:28:03.132Z,986.44
2023-04-09T01:29:03.168Z,986.52
2023-04-09T01:30:03.200Z,986.44
2023-04-09T01:31:03.375Z,986.55
2023-04-09T01:32:03.353Z,986.47
2023-04-09T01:33:03.398Z,986.44
2023-04-09T01:34:03.444Z,986.47
2023-04-09T01:35:03.464Z,986.60
2023-04-09T01:36:03.540Z,986.41
2023-04-09T01:37:03.540Z,986.47
2023-04-09T01:38:03.485Z,986.63
2023-04-09T01:39:03.578Z,986.53
2023-04-09T01:40:03.521Z,986.66
2023-04-09T01:41:03.512Z,986.57
2023-04-09T01:42:03.646Z,986.60
2023-04-09T01:43:03.595Z,986.50
2023-04-09T01:44:03.636Z,986.66
2023-04-09T01:45:03.742Z,986.58
2023-04-09T01:46:03.982Z,986.63
2023-04-09T01:47:03.761Z,986.50
2023-04-09T01:48:03.676Z,986.61
2023-04-09T01:49:03.711Z,986.53
2023-04-09T01:50:03.889Z,986.56
2023-04-09T01:51:03.803Z,986.58
2023-04-09T01:52:02.931Z,986.58
2023-04-09T01:53:02.926Z,986.48
2023-04-09T01:54:02.926Z,986.64
2023-04-09T01:55:02.917Z,986.61
2023-04-09T01:56:02.934Z,986.51
2023-04-09T01:57:03.905Z,986.61
2023-04-09T01:58:02.995Z,986.51
2023-04-09T01:59:02.953Z,986.59
2023-04-09T02:00:02.937Z,986.43
2023-04-09T02:01:03.038Z,986.54
2023-04-09T02:02:03.132Z,986.56
2023-04-09T02:03:03.322Z,986.65
2023-04-09T02:04:03.397Z,986.65
2023-04-09T02:05:03.094Z,986.65
2023-04-09T02:06:03.145Z,986.65
2023-04-09T02:07:03.098Z,986.55
2023-04-09T02:08:03.182Z,986.62
2023-04-09T02:09:03.138Z,986.62
2023-04-09T02:10:03.167Z,986.59
2023-04-09T02:11:03.149Z,986.57
2023-04-09T02:12:03.190Z,986.57
2023-04-09T02:13:03.475Z,986.74
2023-04-09T02:14:03.405Z,986.63
2023-04-09T02:15:03.330Z,986.63
2023-04-09T02:16:03.427Z,986.66
2023-04-09T02:17:03.352Z,986.57
2023-04-09T02:18:03.436Z,986.71
2023-04-09T02:19:03.451Z,986.80
2023-04-09T02:20:03.459Z,986.83
2023-04-09T02:21:03.407Z,986.72
2023-04-09T02:22:03.421Z,986.72
2023-04-09T02:23:03.405Z,986.60
2023-04-09T02:24:03.413Z,986.69
2023-04-09T02:25:03.446Z,986.60
2023-04-09T02:26:03.396Z,986.60
2023-04-09T02:27:03.634Z,986.75
2023-04-09T02:28:03.653Z,986.63
2023-04-09T02:29:03.699Z,986.72
2023-04-09T02:30:03.847Z,986.72
2023-04-09T02:31:03.869Z,986.63
2023-04-09T02:32:02.938Z,986.69
2023-04-09T02:33:02.989Z,986.66
2023-04-09T02:34:03.047Z,986.58
2023-04-09T02:35:02.944Z,986.50
2023-04-09T02:36:03.146Z,986.53
2023-04-09T02:37:03.028Z,986.48
2023-04-09T02:38:03.089Z,986.56
2023-04-09T02:39:03.071Z,986.53
2023-04-09T02:40:02.995Z,986.50
2023-04-09T02:41:03.052Z,986.53
2023-04-09T02:42:03.079Z,986.50
2023-04-09T02:43:03.150Z,986.50
2023-04-09T02:44:03.028Z,986.45
2023-04-09T02:45:03.221Z,986.53
2023-04-09T02:46:03.336Z,986.58
2023-04-09T02:47:03.145Z,986.56
2023-04-09T02:48:03.316Z,986.53
2023-04-09T02:49:03.250Z,986.36
2023-04-09T02:50:03.183Z,986.48
2023-04-09T02:51:03.294Z,986.56
2023-04-09T02:52:03.356Z,986.48
2023-04-09T02:53:03.336Z,986.56
2023-04-09T02:54:03.346Z,986.56
2023-04-09T02:55:03.346Z,986.37
2023-04-09T02:56:03.389Z,986.51
2023-04-09T02:57:03.478Z,986.51
2023-04-09T02:58:03.448Z,986.42
2023-04-09T02:59:03.558Z,986.42
2023-04-09T03:00:03.589Z,986.37
2023-04-09T03:01:03.563Z,986.56
2023-04-09T03:02:04.002Z,986.51
2023-04-09T03:03:03.916Z,986.58
2023-04-09T03:04:03.873Z,986.54
2023-04-09T03:05:03.713Z,986.59
2023-04-09T03:06:02.949Z,986.37
2023-04-09T03:07:02.964Z,986.51
2023-04-09T03:08:03.075Z,986.64
2023-04-09T03:09:03.159Z,986.67
2023-04-09T03:10:03.114Z,986.56
2023-04-09T03:11:03.154Z,986.67
2023-04-09T03:12:03.025Z,986.56
2023-04-09T03:13:03.246Z,986.46
2023-04-09T03:14:03.164Z,986.55
2023-04-09T03:15:03.204Z,986.49
2023-04-09T03:16:03.359Z,986.52
2023-04-09T03:17:03.416Z,986.52
2023-04-09T03:18:03.409Z,986.60
2023-04-09T03:19:03.462Z,986.55
2023-04-09T03:20:03.330Z,986.57
2023-04-09T03:21:03.313Z,986.60
2023-04-09T03:22:03.325Z,986.53
2023-04-09T03:23:03.435Z,986.57
2023-04-09T03:24:03.089Z,986.63
2023-04-09T03:25:03.099Z,986.56
2023-04-09T03:26:03.234Z,986.47
2023-04-09T03:27:03.187Z,986.47
2023-04-09T03:28:03.230Z,986.58
2023-04-09T03:29:03.406Z,986.61
2023-04-09T03:30:03.378Z,986.53
2023-04-09T03:31:03.423Z,986.53
2023-04-09T03:32:03.424Z,986.48
2023-04-09T03:33:03.623Z,986.66
2023-04-09T03:34:03.522Z,986.56
2023-04-09T03:35:03.496Z,986.67
2023-04-09T03:36:03.588Z,986.51
2023-04-09T03:37:03.477Z,986.64
2023-04-09T03:38:03.422Z,986.54
2023-04-09T03:39:03.403Z,986.58
2023-04-09T03:40:03.440Z,986.78
2023-04-09T03:41:03.407Z,986.58
2023-04-09T03:42:03.437Z,986.56
2023-04-09T03:43:03.483Z,986.54
2023-04-09T03:44:03.419Z,986.56
2023-04-09T03:45:03.490Z,986.54
2023-04-09T03:46:03.583Z,986.58
2023-04-09T03:47:03.753Z,986.58
2023-04-09T03:48:03.742Z,986.56
2023-04-09T03:49:03.705Z,986.48
2023-04-09T03:50:03.667Z,986.54
2023-04-09T03:51:03.720Z,986.51
2023-04-09T03:52:03.739Z,986.43
2023-04-09T03:53:03.014Z,986.54
2023-04-09T03:54:03.071Z,986.59
2023-04-09T03:55:03.045Z,986.59
2023-04-09T03:56:03.171Z,986.64
2023-04-09T03:57:03.033Z,986.51
2023-04-09T03:58:03.143Z,986.62
2023-04-09T03:59:03.184Z,986.51
2023-04-09T04:00:03.168Z,986.65
2023-04-09T04:01:03.373Z,986.79
2023-04-09T04:02:03.355Z,986.62
2023-04-09T04:03:03.849Z,986.70
2023-04-09T04:04:03.455Z,986.65
2023-04-09T04:05:03.379Z,986.73
2023-04-09T04:06:03.444Z,986.70
2023-04-09T04:07:03.455Z,986.62
2023-04-09T04:08:03.584Z,986.65
2023-04-09T04:09:03.616Z,986.59
2023-04-09T04:10:03.463Z,986.76
2023-04-09T04:11:03.710Z,986.79
2023-04-09T04:12:03.704Z,986.65
2023-04-09T04:13:03.676Z,986.65
2023-04-09T04:14:03.625Z,986.71
2023-04-09T04:15:03.808Z,986.62
2023-04-09T04:16:03.617Z,986.60
2023-04-09T04:17:03.586Z,986.79
2023-04-09T04:18:03.656Z,986.82
2023-04-09T04:19:03.671Z,986.71
2023-04-09T04:20:03.651Z,986.60
2023-04-09T04:21:03.745Z,986.76
2023-04-09T04:22:03.725Z,986.71
2023-04-09T04:23:03.657Z,986.71
2023-04-09T04:24:03.752Z,986.68
2023-04-09T04:25:04.102Z,986.85
2023-04-09T04:26:03.031Z,986.74
2023-04-09T04:27:03.136Z,986.80
2023-04-09T04:28:03.175Z,986.74
2023-04-09T04:29:03.224Z,986.88
2023-04-09T04:30:03.327Z,986.68
2023-04-09T04:31:03.268Z,986.83
2023-04-09T04:32:03.473Z,986.85
2023-04-09T04:33:03.336Z,986.85
2023-04-09T04:34:03.366Z,986.97
2023-04-09T04:35:03.284Z,986.94
2023-04-09T04:36:03.367Z,986.91
2023-04-09T04:37:03.335Z,986.91
2023-04-09T04:38:03.427Z,986.91
2023-04-09T04:39:03.518Z,986.80
2023-04-09T04:40:03.542Z,986.97
2023-04-09T04:41:03.776Z,986.91
2023-04-09T04:42:03.862Z,986.75
2023-04-09T04:43:03.953Z,986.80
2023-04-09T04:44:03.881Z,986.83
2023-04-09T04:45:02.956Z,986.97
2023-04-09T04:46:03.226Z,986.89
2023-04-09T04:47:03.218Z,986.86
2023-04-09T04:48:03.275Z,986.89
2023-04-09T04:49:03.253Z,986.89
2023-04-09T04:50:03.259Z,986.92
2023-04-09T04:51:03.170Z,986.92
2023-04-09T04:52:03.361Z,986.83
2023-04-09T04:53:03.279Z,986.94
2023-04-09T04:54:03.261Z,986.97
2023-04-09T04:55:03.401Z,987.00
2023-04-09T04:56:03.343Z,986.92
2023-04-09T04:57:03.609Z,986.95
2023-04-09T04:58:03.518Z,987.06
2023-04-09T04:59:03.492Z,986.89
2023-04-09T05:00:03.409Z,986.92
2023-04-09T05:01:03.521Z,986.95
2023-04-09T05:02:03.533Z,986.89
2023-04-09T05:03:03.794Z,986.92
2023-04-09T05:04:03.724Z,987.00
2023-04-09T05:05:03.678Z,986.97
2023-04-09T05:06:03.526Z,986.92
2023-04-09T05:07:03.544Z,986.92
2023-04-09T05:08:03.376Z,986.95
2023-04-09T05:09:03.502Z,986.95
2023-04-09T05:10:03.665Z,986.89
2023-04-09T05:11:03.659Z,986.86
2023-04-09T05:12:03.812Z,986.89
2023-04-09T05:13:03.900Z,986.83
2023-04-09T05:14:03.032Z,986.81
2023-04-09T05:15:02.963Z,986.89
2023-04-09T05:16:03.117Z,986.86
2023-04-09T05:17:03.260Z,986.89
2023-04-09T05:18:03.055Z,986.97
2023-04-09T05:19:03.023Z,986.78
2023-04-09T05:20:03.144Z,986.89
2023-04-09T05:21:03.161Z,986.94
2023-04-09T05:22:03.226Z,986.91
2023-04-09T05:23:03.324Z,986.85
2023-04-09T05:24:03.321Z,986.91
2023-04-09T05:25:03.442Z,986.65
2023-04-09T05:26:03.346Z,986.82
2023-04-09T05:27:03.584Z,986.59
2023-04-09T05:28:03.682Z,986.70
2023-04-09T05:29:03.698Z,986.59
2023-04-09T05:30:03.734Z,986.54
2023-04-09T05:31:03.789Z,986.56
2023-04-09T05:32:03.633Z,986.78
2023-04-09T05:33:03.533Z,986.63
2023-04-09T05:34:03.604Z,986.47
2023-04-09T05:35:03.602Z,986.50
2023-04-09T05:36:03.750Z,986.57
2023-04-09T05:37:03.754Z,986.74
2023-04-09T05:38:03.875Z,986.73
2023-04-09T05:39:02.934Z,986.59
2023-04-09T05:40:03.054Z,986.64
2023-04-09T05:41:03.238Z,986.61
2023-04-09T05:42:03.075Z,986.75
2023-04-09T05:43:03.075Z,986.56
2023-04-09T05:44:03.158Z,986.57
2023-04-09T05:45:03.193Z,986.77
2023-04-09T05:46:03.274Z,986.71
2023-04-09T05:47:03.307Z,986.71
2023-04-09T05:48:03.413Z,986.73
2023-04-09T05:49:03.371Z,986.93
2023-04-09T05:50:03.149Z,986.79
2023-04-09T05:51:03.169Z,986.84
2023-04-09T05:52:03.312Z,986.81
2023-04-09T05:53:03.290Z,986.93
2023-04-09T05:54:03.204Z,986.90
2023-04-09T05:55:03.310Z,986.95
2023-04-09T05:56:03.349Z,986.98
2023-04-09T05:57:03.547Z,987.07
2023-04-09T05:58:03.512Z,987.07
2023-04-09T05:59:03.470Z,987.04
2023-04-09T06:00:03.664Z,987.10
2023-04-09T06:01:03.488Z,987.07
2023-04-09T06:02:03.606Z,987.24
2023-04-09T06:03:03.988Z,987.35
2023-04-09T06:04:04.995Z,987.33
2023-04-09T06:05:03.768Z,987.33
2023-04-09T06:06:03.738Z,987.44
2023-04-09T06:07:03.872Z,987.44
2023-04-09T06:08:03.840Z,987.30
2023-04-09T06:09:03.872Z,987.42
2023-04-09T06:10:03.951Z,987.39
2023-04-09T06:11:03.066Z,987.59
2023-04-09T06:12:03.088Z,987.59
2023-04-09T06:13:03.131Z,987.68
2023-04-09T06:14:03.147Z,987.48
2023-04-09T06:15:03.054Z,987.65
2023-04-09T06:16:03.175Z,987.68
2023-04-09T06:17:03.164Z,987.71
2023-04-09T06:18:03.318Z,987.54
2023-04-09T06:19:03.276Z,987.68
2023-04-09T06:20:03.250Z,987.62
2023-04-09T06:21:03.342Z,987.65
2023-04-09T06:22:04.277Z,987.60
2023-04-09T06:23:03.259Z,987.65
2023-04-09T06:24:03.391Z,987.54
2023-04-09T06:25:03.336Z,987.57
2023-04-09T06:26:03.399Z,987.51
2023-04-09T06:27:03.374Z,987.68
2023-04-09T06:28:03.404Z,987.51
2023-04-09T06:29:03.419Z,987.62
2023-04-09T06:30:03.429Z,987.59
2023-04-09T06:31:03.463Z,987.54
2023-04-09T06:32:03.438Z,987.57
2023-04-09T06:33:03.523Z,987.59
2023-04-09T06:34:03.558Z,987.54
2023-04-09T06:35:03.487Z,987.51
2023-04-09T06:36:03.587Z,987.59
2023-04-09T06:37:03.703Z,987.56
2023-04-09T06:38:03.620Z,987.50
2023-04-09T06:39:03.629Z,987.53
2023-04-09T06:40:03.685Z,987.50
2023-04-09T06:41:03.901Z,987.56
2023-04-09T06:42:03.780Z,987.58
2023-04-09T06:43:03.856Z,987.56
2023-04-09T06:44:03.799Z,987.58
2023-04-09T06:45:03.754Z,987.53
2023-04-09T06:46:03.050Z,987.58
2023-04-09T06:47:03.008Z,987.55
2023-04-09T06:48:03.202Z,987.61
2023-04-09T06:49:03.142Z,987.61
2023-04-09T06:50:03.066Z,987.47
2023-04-09T06:51:03.064Z,987.55
2023-04-09T06:52:03.396Z,987.55
2023-04-09T06:53:03.104Z,987.52
2023-04-09T06:54:03.114Z,987.52
2023-04-09T06:55:03.309Z,987.55
2023-04-09T06:56:03.165Z,987.49
2023-04-09T06:57:03.096Z,987.43
2023-04-09T06:58:03.146Z,987.35
2023-04-09T06:59:03.181Z,987.48
2023-04-09T07:00:03.097Z,987.37
2023-04-09T07:01:03.281Z,987.37
2023-04-09T07:02:03.324Z,987.34
2023-04-09T07:03:03.609Z,987.42
2023-04-09T07:04:03.434Z,987.28
2023-04-09T07:05:03.288Z,987.25
2023-04-09T07:06:03.311Z,987.39
2023-04-09T07:07:03.338Z,987.44
2023-04-09T07:08:03.299Z,987.36
2023-04-09T07:09:03.285Z,987.44
2023-04-09T07:10:03.210Z,987.38
2023-04-09T07:11:03.206Z,987.55
2023-04-09T07:12:03.260Z,987.32
2023-04-09T07:13:03.344Z,987.52
2023-04-09T07:14:03.225Z,987.43
2023-04-09T07:15:03.178Z,987.31
2023-04-09T07:16:03.200Z,987.40
2023-04-09T07:17:03.251Z,987.39
2023-04-09T07:18:03.304Z,987.53
2023-04-09T07:19:03.371Z,987.44
2023-04-09T07:20:03.401Z,987.44
2023-04-09T07:21:04.629Z,987.49
2023-04-09T07:22:03.621Z,987.55
2023-04-09T07:23:03.593Z,987.49
2023-04-09T07:24:03.637Z,987.54
2023-04-09T07:25:04.005Z,987.57
2023-04-09T07:26:03.558Z,987.65
2023-04-09T07:27:03.602Z,987.48
2023-04-09T07:28:03.725Z,987.95
2023-04-09T07:29:03.790Z,987.70
2023-04-09T07:30:03.955Z,987.81
2023-04-09T07:31:03.888Z,987.73
2023-04-09T07:32:03.830Z,987.72
2023-04-09T07:33:03.868Z,987.94
2023-04-09T07:34:03.767Z,987.97
2023-04-09T07:35:03.823Z,988.11
2023-04-09T07:36:03.929Z,988.08
2023-04-09T07:37:03.995Z,988.16
2023-04-09T07:38:03.859Z,988.10
2023-04-09T07:39:03.071Z,988.07
2023-04-09T07:40:02.967Z,988.24
2023-04-09T07:41:02.952Z,988.18
2023-04-09T07:42:02.971Z,988.24
2023-04-09T07:43:03.095Z,988.24
2023-04-09T07:44:03.030Z,988.28
2023-04-09T07:45:03.029Z,988.34
2023-04-09T07:46:03.131Z,988.28
2023-04-09T07:47:03.523Z,988.36
2023-04-09T07:48:03.352Z,988.45
2023-04-09T07:49:03.312Z,988.39
2023-04-09T07:50:03.255Z,988.45
2023-04-09T07:51:03.489Z,988.44
2023-04-09T07:52:03.264Z,988.53
2023-04-09T07:53:03.249Z,988.59
2023-04-09T07:54:03.270Z,988.56
2023-04-09T07:55:03.333Z,988.67
2023-04-09T07:56:03.255Z,988.61
2023-04-09T07:57:03.424Z,988.69
2023-04-09T07:58:03.321Z,988.72
2023-04-09T07:59:03.367Z,988.81
2023-04-09T08:00:03.509Z,988.72
2023-04-09T08:01:03.665Z,988.80
2023-04-09T08:02:03.869Z,988.78
2023-04-09T08:03:04.225Z,988.78
2023-04-09T08:04:04.003Z,988.86
2023-04-09T08:05:03.852Z,988.77
2023-04-09T08:06:03.878Z,988.86
2023-04-09T08:07:02.976Z,988.77
2023-04-09T08:08:03.198Z,988.71
2023-04-09T08:09:03.035Z,988.66
2023-04-09T08:10:03.234Z,988.68
2023-04-09T08:11:03.285Z,988.83
2023-04-09T08:12:03.187Z,988.77
2023-04-09T08:13:03.310Z,988.88
2023-04-09T08:14:03.300Z,988.77
2023-04-09T08:15:03.365Z,988.80
2023-04-09T08:16:03.440Z,988.74
2023-04-09T08:17:03.352Z,988.88
2023-04-09T08:18:03.423Z,988.85
2023-04-09T08:19:03.260Z,988.80
2023-04-09T08:20:03.320Z,988.88
2023-04-09T08:21:03.286Z,988.80
2023-04-09T08:22:03.353Z,988.82
2023-04-09T08:23:03.352Z,988.85
2023-04-09T08:24:03.335Z,988.79
2023-04-09T08:25:03.471Z,988.82
2023-04-09T08:26:03.352Z,988.88
2023-04-09T08:27:03.401Z,988.82
2023-04-09T08:28:03.580Z,988.88
2023-04-09T08:29:03.523Z,988.82
2023-04-09T08:30:03.805Z,988.84
2023-04-09T08:31:03.748Z,988.81
2023-04-09T08:32:03.767Z,988.84
2023-04-09T08:33:03.834Z,988.84
2023-04-09T08:34:03.802Z,988.84
2023-04-09T08:35:03.792Z,988.95
2023-04-09T08:36:03.892Z,989.07
2023-04-09T08:37:03.042Z,988.92
2023-04-09T08:38:03.133Z,988.95
2023-04-09T08:39:03.274Z,989.01
2023-04-09T08:40:03.262Z,989.06
2023-04-09T08:41:03.486Z,988.92
2023-04-09T08:42:03.741Z,988.92
2023-04-09T08:43:03.697Z,988.95
2023-04-09T08:44:03.600Z,988.98
2023-04-09T08:45:03.793Z,989.03
2023-04-09T08:46:04.109Z,989.03
2023-04-09T08:47:03.907Z,988.94
2023-04-09T08:48:03.181Z,988.97
2023-04-09T08:49:03.113Z,988.97
2023-04-09T08:50:03.117Z,989.09
2023-04-09T08:51:03.232Z,989.00
2023-04-09T08:52:03.463Z,988.94
2023-04-09T08:53:03.375Z,989.09
2023-04-09T08:54:05.459Z,989.06
2023-04-09T08:55:03.570Z,989.14
2023-04-09T08:56:03.321Z,989.08
2023-04-09T08:57:03.274Z,989.05
2023-04-09T08:58:03.244Z,989.00
2023-04-09T08:59:03.419Z,989.05
2023-04-09T09:00:03.271Z,988.94
2023-04-09T09:01:03.355Z,989.14
2023-04-09T09:02:03.668Z,989.02
2023-04-09T09:03:03.858Z,988.97
2023-04-09T09:04:03.628Z,989.02
2023-04-09T09:05:03.414Z,988.99
2023-04-09T09:06:03.697Z,989.05
2023-04-09T09:07:03.577Z,989.05
2023-04-09T09:08:03.641Z,989.02
2023-04-09T09:09:03.638Z,988.96
2023-04-09T09:10:03.743Z,988.93
2023-04-09T09:11:03.810Z,988.85
2023-04-09T09:12:03.824Z,988.79
2023-04-09T09:13:03.970Z,988.84
2023-04-09T09:14:03.015Z,988.87
2023-04-09T09:15:03.964Z,988.99
2023-04-09T09:16:03.937Z,988.96
2023-04-09T09:17:03.014Z,988.84
2023-04-09T09:18:03.152Z,988.81
2023-04-09T09:19:03.050Z,988.87
2023-04-09T09:20:03.079Z,988.98
2023-04-09T09:21:03.120Z,988.90
2023-04-09T09:22:03.237Z,988.81
2023-04-09T09:23:03.382Z,989.07
2023-04-09T09:24:03.525Z,988.95
2023-04-09T09:25:03.512Z,989.07
2023-04-09T09:26:03.491Z,988.95
2023-04-09T09:27:03.554Z,989.04
2023-04-09T09:28:03.340Z,989.15
2023-04-09T09:29:03.456Z,989.09
2023-04-09T09:30:03.451Z,989.04
2023-04-09T09:31:03.504Z,989.07
2023-04-09T09:32:03.449Z,989.18
2023-04-09T09:33:03.348Z,988.98
2023-04-09T09:34:03.299Z,989.15
2023-04-09T09:35:03.383Z,989.04
2023-04-09T09:36:03.378Z,989.07
2023-04-09T09:37:03.253Z,989.07
2023-04-09T09:38:03.593Z,989.04
2023-04-09T09:39:03.458Z,989.32
2023-04-09T09:40:03.758Z,989.15
2023-04-09T09:41:03.709Z,989.09
2023-04-09T09:42:03.660Z,989.04
2023-04-09T09:43:03.597Z,989.09
2023-04-09T09:44:03.651Z,989.06
2023-04-09T09:45:03.780Z,989.18
2023-04-09T09:46:03.788Z,989.18
2023-04-09T09:47:03.813Z,989.06
2023-04-09T09:48:03.016Z,989.23
2023-04-09T09:49:03.105Z,988.98
2023-04-09T09:50:03.096Z,989.29
2023-04-09T09:51:03.148Z,989.12
2023-04-09T09:52:03.176Z,989.20
2023-04-09T09:53:03.201Z,989.15
2023-04-09T09:54:03.124Z,989.14
2023-04-09T09:55:03.070Z,989.17
2023-04-09T09:56:03.176Z,989.11
2023-04-09T09:57:03.092Z,989.08
2023-04-09T09:58:03.058Z,989.14
2023-04-09T09:59:03.007Z,989.23
2023-04-09T10:00:03.183Z,989.14
2023-04-09T10:01:03.281Z,989.17
2023-04-09T10:02:03.452Z,989.23
2023-04-09T10:03:03.415Z,989.14
2023-04-09T10:04:03.444Z,989.22
2023-04-09T10:05:03.434Z,989.25
2023-04-09T10:06:03.600Z,989.20
2023-04-09T10:07:03.675Z,989.31
2023-04-09T10:08:03.785Z,989.31
2023-04-09T10:09:03.716Z,989.37
2023-04-09T10:10:03.921Z,989.43
2023-04-09T10:11:02.945Z,989.43
2023-04-09T10:12:03.080Z,989.43
2023-04-09T10:13:03.062Z,989.43
2023-04-09T10:14:03.057Z,989.43
2023-04-09T10:15:03.074Z,989.45
2023-04-09T10:16:03.238Z,989.57
2023-04-09T10:17:04.007Z,989.57
2023-04-09T10:18:03.144Z,989.60
2023-04-09T10:19:03.050Z,989.45
2023-04-09T10:20:03.101Z,989.54
2023-04-09T10:21:02.950Z,989.63
2023-04-09T10:22:03.043Z,989.54
2023-04-09T10:23:03.118Z,989.48
2023-04-09T10:24:03.099Z,989.54
2023-04-09T10:25:03.232Z,989.60
2023-04-09T10:26:03.160Z,989.45
2023-04-09T10:27:03.201Z,989.59
2023-04-09T10:28:03.100Z,989.42
2023-04-09T10:29:03.086Z,989.56
2023-04-09T10:30:03.104Z,989.36
2023-04-09T10:31:03.201Z,989.39
2023-04-09T10:32:03.091Z,989.39
2023-04-09T10:33:03.104Z,989.42
2023-04-09T10:34:03.064Z,989.33
2023-04-09T10:35:03.251Z,989.45
2023-04-09T10:36:03.433Z,989.30
2023-04-09T10:37:03.311Z,989.42
2023-04-09T10:38:03.379Z,989.39
2023-04-09T10:39:03.258Z,989.50
2023-04-09T10:40:03.386Z,989.47
2023-04-09T10:41:03.264Z,989.42
2023-04-09T10:42:03.466Z,989.39
2023-04-09T10:43:03.585Z,989.30
2023-04-09T10:44:03.608Z,989.33
2023-04-09T10:45:03.781Z,989.36
2023-04-09T10:46:03.827Z,989.18
2023-04-09T10:47:03.877Z,989.33
2023-04-09T10:48:03.908Z,989.30
2023-04-09T10:49:03.005Z,989.36
2023-04-09T10:50:02.992Z,989.33
2023-04-09T10:51:02.957Z,989.36
2023-04-09T10:52:03.999Z,989.30
2023-04-09T10:53:03.873Z,989.30
2023-04-09T10:54:03.009Z,989.30
2023-04-09T10:55:03.007Z,989.33
2023-04-09T10:56:02.972Z,989.38
2023-04-09T10:57:03.078Z,989.38
2023-04-09T10:58:03.106Z,989.30
2023-04-09T10:59:03.081Z,989.18
2023-04-09T11:00:03.297Z,989.44
2023-04-09T11:01:03.305Z,989.47
2023-04-09T11:02:03.334Z,989.30
2023-04-09T11:03:03.442Z,989.33
2023-04-09T11:04:03.196Z,989.33
2023-04-09T11:05:03.389Z,989.38
2023-04-09T11:06:03.437Z,989.30
2023-04-09T11:07:03.456Z,989.44
2023-04-09T11:08:03.566Z,989.35
2023-04-09T11:09:03.605Z,989.32
2023-04-09T11:10:03.700Z,989.35
2023-04-09T11:11:03.673Z,989.33
2023-04-09T11:12:03.639Z,989.35
2023-04-09T11:13:03.684Z,989.27
2023-04-09T11:14:03.587Z,989.38
2023-04-09T11:15:03.701Z,989.21
2023-04-09T11:16:03.973Z,989.30
2023-04-09T11:17:03.780Z,989.32
2023-04-09T11:18:03.955Z,989.21
2023-04-09T11:19:02.956Z,989.21
2023-04-09T11:20:02.994Z,989.24
2023-04-09T11:21:02.971Z,989.18
2023-04-09T11:22:02.985Z,989.09
2023-04-09T11:23:03.063Z,989.26
2023-04-09T11:24:03.890Z,989.12
2023-04-09T11:25:03.892Z,989.09
2023-04-09T11:26:03.064Z,989.15
2023-04-09T11:27:03.006Z,989.12
2023-04-09T11:28:03.052Z,989.18
2023-04-09T11:29:03.076Z,989.23
2023-04-09T11:30:03.014Z,989.18
2023-04-09T11:31:03.059Z,989.15
2023-04-09T11:32:02.950Z,989.26
2023-04-09T11:33:03.954Z,989.20
2023-04-09T11:34:03.880Z,989.03
2023-04-09T11:35:04.052Z,989.09
2023-04-09T11:36:03.149Z,989.09
2023-04-09T11:37:03.116Z,989.03
2023-04-09T11:38:03.189Z,989.12
2023-04-09T11:39:03.170Z,989.12
2023-04-09T11:40:03.754Z,989.20
2023-04-09T11:41:03.790Z,989.09
2023-04-09T11:42:03.832Z,989.34
2023-04-09T11:43:02.921Z,989.23
2023-04-09T11:44:03.423Z,989.14
2023-04-09T11:45:03.434Z,989.29
2023-04-09T11:46:03.428Z,989.23
2023-04-09T11:47:03.707Z,989.29
2023-04-09T11:48:03.650Z,989.20
2023-04-09T11:49:03.552Z,989.31
2023-04-09T11:50:03.177Z,989.40
2023-04-09T11:51:03.294Z,989.17
2023-04-09T11:52:03.340Z,989.11
2023-04-09T11:53:03.288Z,989.26
2023-04-09T11:54:03.362Z,989.11
2023-04-09T11:55:03.340Z,989.14
2023-04-09T11:56:03.304Z,989.25
2023-04-09T11:57:03.401Z,989.34
2023-04-09T11:58:03.412Z,989.28
2023-04-09T11:59:03.354Z,989.20
2023-04-09T12:00:05.579Z,989.25
2023-04-09T12:01:03.333Z,989.11
2023-04-09T12:02:03.635Z,989.05
2023-04-09T12:03:04.274Z,989.14
2023-04-09T12:04:03.958Z,989.31
2023-04-09T12:05:03.780Z,989.14
2023-04-09T12:06:04.120Z,989.08
2023-04-09T12:07:03.525Z,989.11
2023-04-09T12:08:03.655Z,989.08
2023-04-09T12:09:03.730Z,989.14
2023-04-09T12:10:03.835Z,989.34
2023-04-09T12:11:03.924Z,989.22
2023-04-09T12:12:03.834Z,989.14
2023-04-09T12:13:03.938Z,989.08
2023-04-09T12:14:02.946Z,989.08
2023-04-09T12:15:03.894Z,989.05
2023-04-09T12:16:04.136Z,989.08
2023-04-09T12:17:04.153Z,989.02
2023-04-09T12:18:03.253Z,989.13
2023-04-09T12:19:03.107Z,989.16
2023-04-09T12:20:03.212Z,989.16
2023-04-09T12:21:03.229Z,989.13
2023-04-09T12:22:03.346Z,989.16
2023-04-09T12:23:03.323Z,989.16
2023-04-09T12:24:03.286Z,989.36
2023-04-09T12:25:03.260Z,989.24
2023-04-09T12:26:03.397Z,989.30
2023-04-09T12:27:03.531Z,989.21
2023-04-09T12:28:03.640Z,989.16